Time;durP1;ratioP1;P1;durP2;ratioP2;P2;SDS_P1;SDS_P2;PMS_P1;PMS_P2;Temp;Humidity;BMP_temperature;BMP_pressure;BME280_temperature;BME280_humidity;BME280_pressure;Samples;Min_cycle;Max_cycle;Signal;HPM_P1;HPM_P2
2023/02/19 00:01:14;;;;;;;8.20;7.40;;;10.80;99.90;;;;;;5012527;28;20022;-55
2023/02/19 00:03:40;;;;;;;8.82;7.13;;;10.90;99.90;;;;;;5012520;28;20041;-54
2023/02/19 00:06:09;;;;;;;8.13;7.22;;;10.80;99.90;;;;;;5009384;28;20448;-51
2023/02/19 00:08:36;;;;;;;9.40;7.35;;;10.90;99.90;;;;;;5009482;28;20022;-49
2023/02/19 00:11:02;;;;;;;7.85;7.15;;;10.90;99.90;;;;;;5009384;28;20604;-51
2023/02/19 00:13:29;;;;;;;10.98;7.00;;;10.90;99.90;;;;;;5009658;28;20083;-56
2023/02/19 00:15:55;;;;;;;16.33;8.70;;;10.90;99.90;;;;;;5009636;28;20032;-56
2023/02/19 00:18:21;;;;;;;7.90;6.60;;;10.90;99.90;;;;;;5009256;28;20036;-53
2023/02/19 00:20:46;;;;;;;7.20;6.50;;;10.90;99.90;;;;;;5009763;28;20033;-52
2023/02/19 00:23:12;;;;;;;8.10;6.72;;;10.80;99.90;;;;;;5009448;28;20022;-50
2023/02/19 00:25:37;;;;;;;8.25;6.55;;;10.80;99.90;;;;;;5009050;28;20044;-48
2023/02/19 00:28:04;;;;;;;7.03;6.35;;;10.80;99.90;;;;;;5009106;28;20442;-52
2023/02/19 00:30:30;;;;;;;7.95;7.07;;;10.80;99.90;;;;;;5009046;28;20026;-51
2023/02/19 00:32:55;;;;;;;8.30;6.75;;;10.80;99.90;;;;;;5010227;28;20029;-51
2023/02/19 00:35:21;;;;;;;8.00;7.00;;;10.80;99.90;;;;;;5010329;28;20032;-51
2023/02/19 00:37:47;;;;;;;8.80;6.85;;;10.80;99.90;;;;;;5011547;28;20126;-51
2023/02/19 00:40:12;;;;;;;7.22;6.53;;;10.80;99.90;;;;;;5011840;28;20021;-51
2023/02/19 00:42:37;;;;;;;9.45;7.10;;;10.80;99.90;;;;;;5011656;28;20379;-52
2023/02/19 00:45:03;;;;;;;6.90;6.20;;;10.80;99.90;;;;;;5011370;28;20045;-51
2023/02/19 00:47:29;;;;;;;7.07;6.38;;;10.80;99.90;;;;;;5011668;28;20025;-48
2023/02/19 00:49:54;;;;;;;7.30;6.15;;;10.80;99.90;;;;;;5011736;28;20026;-51
2023/02/19 00:52:20;;;;;;;6.95;6.25;;;10.80;99.90;;;;;;5011955;28;20478;-51
2023/02/19 00:54:45;;;;;;;39.90;23.95;;;10.80;99.90;;;;;;5011540;28;20125;-53
2023/02/19 00:57:11;;;;;;;7.15;6.45;;;10.80;99.90;;;;;;5011464;28;20101;-49
2023/02/19 00:59:36;;;;;;;9.20;6.60;;;10.80;99.90;;;;;;5011785;28;20026;-55
2023/02/19 01:02:02;;;;;;;7.00;5.60;;;10.80;99.90;;;;;;5011594;28;20030;-53
2023/02/19 01:04:28;;;;;;;6.47;5.28;;;10.80;99.90;;;;;;5011238;28;20520;-54
2023/02/19 01:06:53;;;;;;;5.70;5.20;;;10.80;99.90;;;;;;5011688;28;20053;-49
2023/02/19 01:09:19;;;;;;;5.80;5.20;;;10.80;99.90;;;;;;5014419;28;20034;-49
2023/02/19 01:11:44;;;;;;;5.78;5.13;;;10.80;99.90;;;;;;5015891;28;20026;-49
2023/02/19 01:14:10;;;;;;;6.25;5.25;;;10.80;99.90;;;;;;5015303;28;20025;-50
2023/02/19 01:16:36;;;;;;;6.57;5.35;;;10.80;99.90;;;;;;5013963;28;20026;-49
2023/02/19 01:19:02;;;;;;;7.70;5.55;;;10.80;99.90;;;;;;5015366;28;20500;-46
2023/02/19 01:21:29;;;;;;;5.78;5.25;;;10.80;99.90;;;;;;5015586;28;20397;-50
2023/02/19 01:23:56;;;;;;;9.40;5.22;;;10.80;99.90;;;;;;5015503;28;20056;-51
2023/02/19 01:26:24;;;;;;;6.25;4.85;;;10.80;99.90;;;;;;5015084;28;20026;-49
2023/02/19 01:28:50;;;;;;;7.05;4.57;;;10.70;99.90;;;;;;5015614;28;20113;-50
2023/02/19 01:31:20;;;;;;;8.45;5.13;;;10.80;99.90;;;;;;5015408;28;20117;-53
2023/02/19 01:33:47;;;;;;;5.47;4.93;;;10.70;99.90;;;;;;5014778;28;20022;-52
2023/02/19 01:36:13;;;;;;;5.80;5.03;;;10.70;99.90;;;;;;5014886;28;20478;-47
2023/02/19 01:38:39;;;;;;;5.13;4.68;;;10.70;99.90;;;;;;5014972;28;20025;-47
2023/02/19 01:41:08;;;;;;;5.53;4.68;;;10.70;99.90;;;;;;5014940;28;20026;-48
2023/02/19 01:43:53;;;;;;;5.40;4.50;;;10.70;99.90;;;;;;5014694;28;20029;-50
2023/02/19 01:46:19;;;;;;;11.13;5.13;;;10.70;99.90;;;;;;5014718;28;20393;-49
2023/02/19 01:48:45;;;;;;;7.35;4.80;;;10.70;99.90;;;;;;5014876;28;20097;-52
2023/02/19 01:51:14;;;;;;;5.25;4.15;;;10.70;99.90;;;;;;5014773;28;20018;-45
2023/02/19 01:53:44;;;;;;;4.90;4.50;;;10.70;99.90;;;;;;5014857;28;20033;-49
2023/02/19 01:56:13;;;;;;;4.88;4.35;;;10.60;99.90;;;;;;5014581;28;20085;-53
2023/02/19 01:58:39;;;;;;;4.88;4.38;;;10.60;99.90;;;;;;5014654;28;20022;-49
2023/02/19 02:01:07;;;;;;;4.65;4.25;;;10.60;99.90;;;;;;5014879;28;20028;-48
2023/02/19 02:03:34;;;;;;;5.25;4.53;;;10.60;99.90;;;;;;5014386;28;20080;-53
2023/02/19 02:06:18;;;;;;;4.82;4.22;;;10.60;99.90;;;;;;5014942;28;20030;-48
2023/02/19 02:11:28;;;;;;;5.47;4.22;;;10.50;99.90;;;;;;5014656;28;20033;-50
2023/02/19 02:13:54;;;;;;;5.50;4.45;;;10.50;99.90;;;;;;5014485;28;20040;-49
2023/02/19 02:16:23;;;;;;;5.13;4.65;;;10.50;99.90;;;;;;5014278;28;20021;-51
2023/02/19 02:19:23;;;;;;;7.72;5.35;;;10.50;99.90;;;;;;5014400;28;20025;-50
2023/02/19 02:21:58;;;;;;;6.20;5.25;;;10.50;99.90;;;;;;5012908;28;20036;-49
2023/02/19 02:25:04;;;;;;;9.02;4.82;;;10.50;99.90;;;;;;5013891;28;20401;-47
2023/02/19 02:27:42;;;;;;;4.95;4.15;;;10.40;99.90;;;;;;5014722;28;20056;-48
2023/02/19 02:30:17;;;;;;;5.90;4.80;;;10.50;99.90;;;;;;5012787;28;20025;-49
2023/02/19 02:33:01;;;;;;;5.80;4.07;;;10.50;99.90;;;;;;5013773;28;20504;-48
2023/02/19 02:35:33;;;;;;;7.50;5.38;;;10.40;99.90;;;;;;5013831;28;20041;-47
2023/02/19 02:38:03;;;;;;;5.65;5.05;;;10.50;99.90;;;;;;5014342;28;20165;-47
2023/02/19 02:40:29;;;;;;;7.30;5.70;;;10.50;99.90;;;;;;5013997;28;20393;-55
2023/02/19 02:42:59;;;;;;;5.65;4.55;;;10.50;99.90;;;;;;5013986;28;20029;-46
2023/02/19 02:45:35;;;;;;;5.40;4.90;;;10.50;99.90;;;;;;5013638;28;20370;-47
2023/02/19 02:48:15;;;;;;;16.38;5.22;;;10.50;99.90;;;;;;5013777;28;20030;-50
2023/02/19 02:51:04;;;;;;;5.13;4.10;;;10.50;99.90;;;;;;5013743;28;20577;-49
2023/02/19 02:56:21;;;;;;;6.82;4.15;;;10.50;99.90;;;;;;5013409;28;20076;-53
2023/02/19 02:58:49;;;;;;;5.18;4.03;;;10.50;99.90;;;;;;5013883;28;20033;-51
2023/02/19 03:04:20;;;;;;;4.60;3.90;;;10.50;99.90;;;;;;5013100;28;20033;-50
2023/02/19 03:06:47;;;;;;;3.88;3.58;;;10.50;99.90;;;;;;5013269;28;20121;-50
2023/02/19 03:09:29;;;;;;;5.80;3.85;;;10.50;99.90;;;;;;5013202;28;20019;-48
2023/02/19 03:20:26;;;;;;;4.68;3.75;;;10.60;99.90;;;;;;5013266;28;20460;-54
2023/02/19 03:22:54;;;;;;;4.43;3.53;;;10.60;99.90;;;;;;5012870;28;20029;-49
2023/02/19 03:28:11;;;;;;;3.30;3.03;;;10.60;99.90;;;;;;5013005;28;20036;-51
2023/02/19 03:30:42;;;;;;;3.00;2.80;;;10.70;99.90;;;;;;5012460;28;20454;-48
2023/02/19 03:33:19;;;;;;;4.68;3.50;;;10.70;99.90;;;;;;5012682;28;20057;-50
2023/02/19 03:35:49;;;;;;;3.20;2.90;;;10.70;99.90;;;;;;5012590;28;20036;-49
2023/02/19 03:38:23;;;;;;;3.63;2.90;;;10.70;99.90;;;;;;5012815;28;20405;-48
2023/02/19 03:41:22;;;;;;;4.60;2.63;;;10.70;99.90;;;;;;5012729;28;20278;-52
2023/02/19 03:43:56;;;;;;;3.17;2.88;;;10.70;99.90;;;;;;5012909;28;20112;-48
2023/02/19 03:46:33;;;;;;;3.30;3.00;;;10.70;99.90;;;;;;5012982;28;20482;-48
2023/02/19 03:49:03;;;;;;;3.45;2.95;;;10.70;99.90;;;;;;5012566;28;20030;-48
2023/02/19 03:51:39;;;;;;;5.28;2.63;;;10.60;99.90;;;;;;5012542;28;20030;-50
2023/02/19 03:54:44;;;;;;;2.45;2.28;;;10.60;99.90;;;;;;5012420;28;20026;-50
2023/02/19 03:57:19;;;;;;;2.58;2.35;;;10.60;99.90;;;;;;5012465;28;20030;-48
2023/02/19 04:00:03;;;;;;;2.83;2.63;;;10.60;99.90;;;;;;5012555;28;20026;-49
2023/02/19 04:02:38;;;;;;;3.92;2.72;;;10.60;99.90;;;;;;5012305;28;20476;-51
2023/02/19 04:05:09;;;;;;;2.53;2.40;;;10.50;99.90;;;;;;5011969;28;20076;-53
2023/02/19 04:07:39;;;;;;;3.08;2.28;;;10.50;99.90;;;;;;5012152;28;20022;-52
2023/02/19 04:10:07;;;;;;;2.83;2.30;;;10.60;99.90;;;;;;5012171;28;20026;-49
2023/02/19 04:12:36;;;;;;;3.63;2.45;;;10.60;99.90;;;;;;5012124;28;20066;-48
2023/02/19 04:15:06;;;;;;;2.50;2.40;;;10.50;99.90;;;;;;5011920;28;20025;-47
2023/02/19 04:17:38;;;;;;;2.55;2.35;;;10.50;99.90;;;;;;5012121;28;20088;-45
2023/02/19 04:20:07;;;;;;;4.30;2.45;;;10.60;99.90;;;;;;5012215;28;20080;-54
2023/02/19 04:22:35;;;;;;;3.00;2.40;;;10.60;99.90;;;;;;5011970;28;20029;-47
2023/02/19 04:25:01;;;;;;;2.13;2.03;;;10.60;99.90;;;;;;5011721;28;20036;-47
2023/02/19 04:27:26;;;;;;;3.13;2.33;;;10.50;99.90;;;;;;5012068;28;20481;-50
2023/02/19 04:29:52;;;;;;;2.22;2.13;;;10.50;99.90;;;;;;5011982;28;20026;-49
2023/02/19 04:32:17;;;;;;;2.85;2.65;;;10.50;99.90;;;;;;5010454;28;20025;-47
2023/02/19 04:34:43;;;;;;;2.20;2.08;;;10.50;99.90;;;;;;5011398;28;20444;-48
2023/02/19 04:37:08;;;;;;;2.50;2.30;;;10.50;99.90;;;;;;5011736;28;20039;-47
2023/02/19 04:39:34;;;;;;;2.17;2.03;;;10.50;99.90;;;;;;5011789;28;20515;-50
2023/02/19 04:41:59;;;;;;;1.98;1.88;;;10.40;99.90;;;;;;5010503;28;20113;-47
2023/02/19 04:44:25;;;;;;;2.72;1.65;;;10.40;99.90;;;;;;5011055;28;20076;-47
2023/02/19 04:46:50;;;;;;;3.83;2.30;;;10.40;99.90;;;;;;5011728;28;20030;-51
2023/02/19 04:49:16;;;;;;;2.40;2.20;;;10.40;99.90;;;;;;5011733;28;20088;-49
2023/02/19 04:51:41;;;;;;;3.30;2.15;;;10.40;99.90;;;;;;5011642;28;20057;-50
2023/02/19 04:54:07;;;;;;;2.10;2.00;;;10.40;99.90;;;;;;5011535;28;20029;-48
2023/02/19 04:56:33;;;;;;;2.05;1.83;;;10.40;99.90;;;;;;5011343;28;20049;-54
2023/02/19 04:58:58;;;;;;;2.17;2.08;;;10.40;99.90;;;;;;5011601;28;20033;-47
2023/02/19 05:01:24;;;;;;;2.42;2.22;;;10.40;99.90;;;;;;5011531;28;20030;-47
2023/02/19 05:03:50;;;;;;;2.30;2.13;;;10.40;99.90;;;;;;5011163;28;20509;-46
2023/02/19 05:06:16;;;;;;;3.55;2.88;;;10.40;99.90;;;;;;5011377;28;20057;-47
2023/02/19 05:08:42;;;;;;;2.83;2.25;;;10.30;99.90;;;;;;5011227;28;20097;-46
2023/02/19 05:11:09;;;;;;;2.90;2.38;;;10.30;99.90;;;;;;5011194;28;20033;-52
2023/02/19 05:13:35;;;;;;;2.95;2.75;;;10.20;99.90;;;;;;5010910;28;20014;-50
2023/02/19 05:16:06;;;;;;;2.85;2.65;;;10.10;99.90;;;;;;5011132;28;20034;-49
2023/02/19 05:18:33;;;;;;;2.50;2.35;;;10.10;99.90;;;;;;5011271;28;20054;-49
2023/02/19 05:20:59;;;;;;;2.13;1.92;;;10.10;99.90;;;;;;5011083;28;20029;-50
2023/02/19 05:23:25;;;;;;;3.05;2.28;;;10.10;99.90;;;;;;5011664;28;20516;-47
2023/02/19 05:25:51;;;;;;;2.30;2.20;;;10.10;99.90;;;;;;5010897;28;20084;-50
2023/02/19 05:28:17;;;;;;;2.38;2.28;;;10.10;99.90;;;;;;5011211;28;20021;-49
2023/02/19 05:30:50;;;;;;;2.20;2.00;;;10.20;99.90;;;;;;5011195;28;20080;-52
2023/02/19 05:33:16;;;;;;;2.20;2.10;;;10.20;99.90;;;;;;5010771;28;20034;-49
2023/02/19 05:35:48;;;;;;;5.85;2.22;;;10.20;99.90;;;;;;5010874;28;20037;-50
2023/02/19 05:38:14;;;;;;;2.13;2.03;;;10.20;99.90;;;;;;5011245;28;20041;-48
2023/02/19 05:40:40;;;;;;;1.98;1.83;;;10.20;99.90;;;;;;5011026;28;20115;-49
2023/02/19 05:43:07;;;;;;;2.20;2.10;;;10.10;99.90;;;;;;5011163;28;20573;-48
2023/02/19 05:45:33;;;;;;;1.70;1.60;;;10.10;99.90;;;;;;5010795;28;20089;-51
2023/02/19 05:47:59;;;;;;;1.80;1.70;;;10.10;99.90;;;;;;5011185;28;20030;-47
2023/02/19 05:50:24;;;;;;;1.55;1.52;;;10.20;99.90;;;;;;5010975;28;20397;-48
2023/02/19 05:52:50;;;;;;;1.75;1.65;;;10.10;99.90;;;;;;5010955;28;20126;-50
2023/02/19 05:55:16;;;;;;;2.70;1.50;;;10.10;99.90;;;;;;5013241;28;20120;-49
2023/02/19 05:57:46;;;;;;;1.60;1.50;;;10.10;99.90;;;;;;5014593;28;20030;-49
2023/02/19 06:00:15;;;;;;;1.77;1.67;;;10.10;99.90;;;;;;5013374;28;20100;-50
2023/02/19 06:02:41;;;;;;;1.70;1.60;;;10.20;99.90;;;;;;5014355;28;20504;-47
2023/02/19 06:05:07;;;;;;;2.03;1.92;;;10.10;99.90;;;;;;5020853;22;20062;-45
2023/02/19 06:07:33;;;;;;;1.95;1.25;;;10.10;99.90;;;;;;4994781;28;20025;-40
2023/02/19 06:09:59;;;;;;;1.73;1.10;;;10.10;99.90;;;;;;4995198;28;20030;-44
2023/02/19 06:12:25;;;;;;;1.13;1.10;;;10.10;99.90;;;;;;4993494;28;20550;-41
2023/02/19 06:14:50;;;;;;;1.75;0.90;;;10.10;99.90;;;;;;4993381;28;20026;-43
2023/02/19 06:17:16;;;;;;;0.80;0.80;;;10.20;99.90;;;;;;4993382;28;20489;-44
2023/02/19 06:19:42;;;;;;;1.10;1.00;;;10.20;99.90;;;;;;4993573;28;20397;-44
2023/02/19 06:22:08;;;;;;;0.95;0.77;;;10.10;99.90;;;;;;4994823;28;20053;-44
2023/02/19 06:24:36;;;;;;;1.05;0.95;;;10.10;99.90;;;;;;4993674;28;20065;-44
2023/02/19 06:27:05;;;;;;;3.20;1.27;;;10.10;99.90;;;;;;4994816;28;20516;-44
2023/02/19 06:29:31;;;;;;;1.30;1.20;;;10.10;99.90;;;;;;4994861;28;20072;-44
2023/02/19 06:31:57;;;;;;;1.30;1.30;;;10.10;99.90;;;;;;4995105;28;20019;-50
2023/02/19 06:34:23;;;;;;;4.47;1.90;;;10.10;99.90;;;;;;4993685;28;20036;-48
2023/02/19 06:36:48;;;;;;;1.80;1.70;;;10.00;99.90;;;;;;4993155;28;20067;-46
2023/02/19 06:39:14;;;;;;;1.60;1.50;;;10.00;99.90;;;;;;4994774;28;20030;-46
2023/02/19 06:41:39;;;;;;;1.63;1.40;;;10.00;99.90;;;;;;4994427;28;20038;-45
2023/02/19 06:44:05;;;;;;;1.80;1.70;;;9.90;99.90;;;;;;4993395;28;20494;-44
2023/02/19 06:46:30;;;;;;;1.83;1.38;;;9.90;99.90;;;;;;4992695;28;20026;-47
2023/02/19 06:48:56;;;;;;;2.00;1.55;;;10.00;99.90;;;;;;4992810;28;20048;-44
2023/02/19 06:51:23;;;;;;;1.90;1.70;;;10.00;99.90;;;;;;4992770;28;20085;-45
2023/02/19 06:53:49;;;;;;;4.00;1.38;;;10.00;99.90;;;;;;4993918;28;20105;-45
2023/02/19 06:56:32;;;;;;;2.45;1.40;;;10.10;99.90;;;;;;4993917;28;20493;-44
2023/02/19 06:58:59;;;;;;;1.20;1.20;;;10.10;99.90;;;;;;4994083;28;20018;-45
2023/02/19 07:01:26;;;;;;;1.02;1.02;;;10.10;99.90;;;;;;4994082;28;20081;-45
2023/02/19 07:03:52;;;;;;;1.95;1.15;;;10.10;99.90;;;;;;4992366;28;20054;-45
2023/02/19 07:06:22;;;;;;;1.17;1.17;;;10.20;99.90;;;;;;4993365;28;20030;-46
2023/02/19 07:08:48;;;;;;;2.65;0.98;;;10.20;99.90;;;;;;4993863;28;20026;-51
2023/02/19 07:11:14;;;;;;;2.88;1.20;;;10.30;99.90;;;;;;4993696;28;20068;-46
2023/02/19 07:13:39;;;;;;;1.58;1.23;;;10.30;99.90;;;;;;4993217;28;20014;-47
2023/02/19 07:16:08;;;;;;;1.33;1.02;;;10.30;99.90;;;;;;4993373;28;20401;-48
2023/02/19 07:18:34;;;;;;;0.90;0.80;;;10.40;99.90;;;;;;4992046;28;20173;-44
2023/02/19 07:21:07;;;;;;;2.50;1.17;;;10.40;99.90;;;;;;4993296;28;20034;-43
2023/02/19 07:23:33;;;;;;;1.42;0.98;;;10.40;99.90;;;;;;4991761;28;20026;-46
2023/02/19 07:25:59;;;;;;;2.28;1.05;;;10.40;99.90;;;;;;4992083;28;20383;-48
2023/02/19 07:28:24;;;;;;;1.55;0.95;;;10.40;99.90;;;;;;4992221;28;20105;-47
2023/02/19 07:30:50;;;;;;;1.27;0.80;;;10.50;99.90;;;;;;4993217;28;20022;-44
2023/02/19 07:33:15;;;;;;;1.77;1.00;;;10.50;99.90;;;;;;4993111;28;20034;-44
2023/02/19 07:35:45;;;;;;;3.63;1.10;;;10.50;99.90;;;;;;4992841;28;20019;-44
2023/02/19 07:38:11;;;;;;;1.23;1.00;;;10.40;99.90;;;;;;4993290;28;20026;-45
2023/02/19 07:40:37;;;;;;;4.45;1.13;;;10.50;99.90;;;;;;4975725;28;20117;-48
2023/02/19 07:43:02;;;;;;;2.88;1.20;;;10.50;99.90;;;;;;4993105;28;20048;-43
2023/02/19 07:45:28;;;;;;;1.80;0.73;;;10.50;99.90;;;;;;4992730;28;20030;-45
2023/02/19 07:47:53;;;;;;;5.10;1.92;;;10.50;99.90;;;;;;4991614;28;20058;-48
2023/02/19 07:50:19;;;;;;;5.32;1.38;;;10.50;99.90;;;;;;4991994;28;20030;-50
2023/02/19 07:52:44;;;;;;;4.88;1.50;;;10.60;99.90;;;;;;4991718;28;20451;-46
2023/02/19 07:55:10;;;;;;;2.47;1.30;;;10.60;99.90;;;;;;4992740;28;20035;-49
2023/02/19 07:57:35;;;;;;;2.90;1.42;;;10.60;99.90;;;;;;4993024;28;20392;-47
2023/02/19 08:00:01;;;;;;;4.82;1.65;;;10.70;99.90;;;;;;4992887;28;20038;-49
2023/02/19 08:05:12;;;;;;;3.33;1.45;;;10.80;99.90;;;;;;4992446;28;20521;-45
2023/02/19 08:07:37;;;;;;;5.05;1.15;;;10.80;99.90;;;;;;4992700;28;20045;-49
2023/02/19 08:15:43;;;;;;;6.13;1.38;;;10.90;99.90;;;;;;4992566;28;20069;-44
2023/02/19 08:18:09;;;;;;;3.28;1.70;;;11.00;99.90;;;;;;4991426;28;20058;-46
2023/02/19 08:20:36;;;;;;;3.72;1.38;;;11.00;99.90;;;;;;4992079;28;20031;-44
2023/02/19 08:23:01;;;;;;;3.05;1.80;;;11.00;99.90;;;;;;4989906;28;20054;-46
2023/02/19 08:25:28;;;;;;;11.82;1.60;;;11.00;99.90;;;;;;4991987;28;20072;-47
2023/02/19 08:27:53;;;;;;;3.75;1.20;;;11.00;99.90;;;;;;4991949;28;20371;-45
2023/02/19 08:30:19;;;;;;;5.78;1.45;;;11.00;99.90;;;;;;4992200;28;20045;-45
2023/02/19 08:32:45;;;;;;;6.85;2.03;;;11.00;99.90;;;;;;4992085;28;20022;-44
2023/02/19 08:35:10;;;;;;;4.53;1.80;;;11.00;99.90;;;;;;4990687;28;20061;-44
2023/02/19 08:37:36;;;;;;;4.35;1.52;;;10.90;99.90;;;;;;4992075;28;20132;-45
2023/02/19 08:40:01;;;;;;;4.07;1.48;;;10.90;99.90;;;;;;4992493;28;20032;-46
2023/02/19 08:42:29;;;;;;;2.90;1.73;;;10.90;99.90;;;;;;4991824;28;20026;-49
2023/02/19 08:44:55;;;;;;;4.35;1.30;;;10.90;99.90;;;;;;4991474;28;20038;-46
2023/02/19 08:47:21;;;;;;;3.70;1.67;;;10.90;99.90;;;;;;4992715;28;20169;-47
2023/02/19 08:49:46;;;;;;;2.72;1.33;;;11.00;99.90;;;;;;4991190;28;20034;-46
2023/02/19 08:52:12;;;;;;;7.45;1.60;;;11.10;99.90;;;;;;4992272;28;20101;-45
2023/02/19 08:54:37;;;;;;;3.47;1.48;;;11.10;99.90;;;;;;4992091;28;20073;-48
2023/02/19 08:57:04;;;;;;;2.42;1.30;;;11.10;99.90;;;;;;4991637;28;20035;-47
2023/02/19 08:59:30;;;;;;;2.85;1.40;;;11.20;99.90;;;;;;4992090;28;20529;-48
2023/02/19 09:01:56;;;;;;;3.85;1.60;;;11.30;99.90;;;;;;4991684;28;20065;-40
2023/02/19 09:04:22;;;;;;;4.90;1.58;;;11.30;99.90;;;;;;4972159;28;20035;-47
2023/02/19 09:06:47;;;;;;;3.97;1.50;;;11.40;99.90;;;;;;4972285;28;20078;-52
2023/02/19 09:09:13;;;;;;;2.45;1.65;;;11.40;99.90;;;;;;4972534;28;20038;-49
2023/02/19 09:11:39;;;;;;;3.38;1.65;;;11.50;99.90;;;;;;4971005;28;20037;-47
2023/02/19 09:14:06;;;;;;;3.00;1.77;;;11.50;99.90;;;;;;4972407;28;20035;-46
2023/02/19 09:16:32;;;;;;;4.15;1.20;;;11.50;99.90;;;;;;4972411;28;20387;-44
2023/02/19 09:18:58;;;;;;;5.57;1.40;;;11.60;99.90;;;;;;4973063;28;20192;-46
2023/02/19 09:21:23;;;;;;;4.30;1.40;;;11.60;99.90;;;;;;4972699;28;20379;-46
2023/02/19 09:23:49;;;;;;;2.10;1.10;;;11.60;99.90;;;;;;4972209;28;20487;-48
2023/02/19 09:26:14;;;;;;;3.35;1.45;;;11.70;99.90;;;;;;4972362;28;20026;-47
2023/02/19 09:28:40;;;;;;;3.67;1.30;;;11.70;99.90;;;;;;4972927;28;20038;-48
2023/02/19 09:31:09;;;;;;;1.98;1.20;;;11.80;99.90;;;;;;4977203;28;20022;-47
2023/02/19 09:33:35;;;;;;;4.15;2.03;;;11.80;99.90;;;;;;4976863;28;20015;-48
2023/02/19 09:36:01;;;;;;;2.38;1.00;;;11.70;99.90;;;;;;4976108;28;20045;-45
2023/02/19 09:38:28;;;;;;;7.07;1.45;;;11.70;99.90;;;;;;4976249;28;20042;-45
2023/02/19 09:40:55;;;;;;;6.18;1.55;;;11.70;99.90;;;;;;4976435;28;20025;-41
2023/02/19 09:43:24;;;;;;;5.25;1.13;;;11.70;99.90;;;;;;4980108;28;20446;-45
2023/02/19 09:46:01;;;;;;;5.43;2.00;;;11.70;99.90;;;;;;4985411;28;20027;-45
2023/02/19 09:48:27;;;;;;;3.55;1.27;;;11.70;99.90;;;;;;4995261;28;20022;-44
2023/02/19 09:50:54;;;;;;;4.00;1.25;;;11.70;99.90;;;;;;4994572;28;20037;-48
2023/02/19 09:53:23;;;;;;;2.38;1.23;;;11.70;99.90;;;;;;4994339;28;20376;-48
2023/02/19 09:55:50;;;;;;;6.53;2.13;;;11.70;99.90;;;;;;4995424;28;20439;-47
2023/02/19 09:58:25;;;;;;;4.25;1.67;;;11.70;99.90;;;;;;4995909;28;20038;-46
2023/02/19 10:00:54;;;;;;;4.10;1.40;;;11.80;99.90;;;;;;4995180;28;20034;-44
2023/02/19 10:03:33;;;;;;;5.05;1.80;;;11.80;99.90;;;;;;4995371;28;20038;-44
2023/02/19 10:06:05;;;;;;;5.22;1.63;;;11.80;99.90;;;;;;4994870;28;20062;-47
2023/02/19 10:08:34;;;;;;;4.30;1.60;;;11.90;99.90;;;;;;4987689;28;20105;-47
2023/02/19 10:11:01;;;;;;;6.32;1.75;;;11.80;99.90;;;;;;4995005;28;20026;-45
2023/02/19 10:13:31;;;;;;;5.85;1.73;;;11.80;99.90;;;;;;4994538;28;20022;-40
2023/02/19 10:16:00;;;;;;;4.85;1.38;;;11.80;99.90;;;;;;4994540;28;20023;-48
2023/02/19 10:18:28;;;;;;;5.50;1.50;;;11.80;99.90;;;;;;4994652;28;20026;-47
2023/02/19 10:20:55;;;;;;;4.35;1.30;;;11.70;99.90;;;;;;4995531;28;20041;-44
2023/02/19 10:23:21;;;;;;;6.28;1.95;;;11.80;99.90;;;;;;4994698;28;20053;-46
2023/02/19 10:25:53;;;;;;;10.13;2.10;;;12.00;99.90;;;;;;4994068;28;20454;-45
2023/02/19 10:28:21;;;;;;;9.18;2.08;;;11.90;99.90;;;;;;4994756;28;20030;-46
2023/02/19 10:30:55;;;;;;;6.07;2.97;;;11.90;99.90;;;;;;4995207;28;20179;-45
2023/02/19 10:33:20;;;;;;;4.50;2.20;;;12.00;99.90;;;;;;4994932;28;20497;-45
2023/02/19 10:35:53;;;;;;;7.95;2.08;;;12.00;99.90;;;;;;4993741;28;20034;-43
2023/02/19 10:38:22;;;;;;;3.55;1.50;;;12.10;99.90;;;;;;4995071;28;20556;-43
2023/02/19 10:40:57;;;;;;;4.75;1.90;;;12.10;99.90;;;;;;4993561;28;20049;-41
2023/02/19 10:43:31;;;;;;;4.53;1.80;;;12.10;99.90;;;;;;4994641;28;20033;-45
2023/02/19 10:46:00;;;;;;;4.13;1.48;;;12.10;99.90;;;;;;4994451;28;20474;-44
2023/02/19 10:48:31;;;;;;;4.85;1.90;;;12.00;99.90;;;;;;4994632;28;20026;-45
2023/02/19 10:51:09;;;;;;;6.03;2.03;;;11.80;99.90;;;;;;4994145;28;20053;-43
2023/02/19 10:53:41;;;;;;;5.45;1.60;;;11.70;99.90;;;;;;4994021;28;20027;-43
2023/02/19 10:56:22;;;;;;;6.50;2.05;;;11.60;99.90;;;;;;4993973;28;20096;-44
2023/02/19 10:58:48;;;;;;;5.97;1.98;;;11.60;99.90;;;;;;4994038;28;20037;-46
2023/02/19 11:01:27;;;;;;;5.47;1.85;;;11.50;99.90;;;;;;4994151;28;20034;-47
2023/02/19 11:04:16;;;;;;;4.40;1.77;;;11.60;99.90;;;;;;4992664;28;20034;-44
2023/02/19 11:06:43;;;;;;;3.22;1.42;;;11.60;99.90;;;;;;4994180;28;20097;-42
2023/02/19 11:09:26;;;;;;;4.43;1.60;;;11.70;99.90;;;;;;4994201;28;20077;-42
2023/02/19 11:11:53;;;;;;;2.95;1.95;;;11.80;99.90;;;;;;4994367;28;20305;-43
2023/02/19 11:14:22;;;;;;;3.58;1.83;;;11.80;99.90;;;;;;4993866;28;20417;-43
2023/02/19 11:16:59;;;;;;;5.82;1.90;;;11.90;99.90;;;;;;4993497;28;20159;-43
2023/02/19 11:19:35;;;;;;;8.07;2.10;;;12.10;99.90;;;;;;4994000;28;20050;-46
2023/02/19 11:22:01;;;;;;;3.50;2.55;;;12.20;99.90;;;;;;4985427;28;20030;-44
2023/02/19 11:24:33;;;;;;;2.88;1.88;;;12.30;99.90;;;;;;4993241;28;20022;-45
2023/02/19 11:27:02;;;;;;;3.10;1.92;;;12.50;99.90;;;;;;4988318;28;20038;-47
2023/02/19 11:29:33;;;;;;;4.90;1.80;;;12.60;99.90;;;;;;4993151;28;20030;-48
2023/02/19 11:32:25;;;;;;;4.65;2.40;;;12.70;99.90;;;;;;4991386;28;20026;-43
2023/02/19 11:35:11;;;;;;;3.70;1.73;;;12.90;99.90;;;;;;4992227;28;20056;-46
2023/02/19 11:37:53;;;;;;;5.32;1.65;;;13.20;99.90;;;;;;4992119;28;20041;-45
2023/02/19 11:40:22;;;;;;;6.38;2.00;;;13.30;99.90;;;;;;4985912;28;20113;-44
2023/02/19 11:43:00;;;;;;;4.97;1.73;;;13.40;99.90;;;;;;4992686;28;20035;-46
2023/02/19 11:45:37;;;;;;;7.35;1.80;;;13.50;99.90;;;;;;4992329;28;20057;-44
2023/02/19 11:48:19;;;;;;;4.63;2.00;;;13.60;99.90;;;;;;4992268;28;20073;-49
2023/02/19 11:51:09;;;;;;;2.13;1.50;;;13.60;99.90;;;;;;4992049;28;20113;-43
2023/02/19 11:53:39;;;;;;;3.25;1.80;;;13.50;99.90;;;;;;4981359;28;20449;-39
2023/02/19 11:56:32;;;;;;;7.35;2.28;;;13.30;99.90;;;;;;4992171;28;20438;-45
2023/02/19 11:59:15;;;;;;;3.75;1.73;;;13.30;99.90;;;;;;4992425;28;20505;-42
2023/02/19 12:02:14;;;;;;;2.50;1.70;;;13.10;99.90;;;;;;4992439;28;20026;-42
2023/02/19 12:05:06;;;;;;;5.75;2.28;;;13.00;99.90;;;;;;5006504;23;20054;-47
2023/02/19 12:08:09;;;;;;;5.28;2.08;;;12.90;99.90;;;;;;4981047;28;20122;-47
2023/02/19 12:10:34;;;;;;;2.25;1.88;;;12.90;99.90;;;;;;4986995;28;20704;-48
2023/02/19 12:13:22;;;;;;;3.08;2.35;;;12.80;99.90;;;;;;4976995;28;20027;-47
2023/02/19 12:16:18;;;;;;;4.20;1.90;;;12.70;99.90;;;;;;4979280;28;20363;-47
2023/02/19 12:19:11;;;;;;;8.63;1.95;;;12.60;99.90;;;;;;4992067;28;20490;-49
2023/02/19 12:22:06;;;;;;;5.03;1.92;;;12.60;99.90;;;;;;4993303;28;20073;-52
2023/02/19 12:24:50;;;;;;;3.28;1.85;;;12.50;99.90;;;;;;4987968;28;20031;-47
2023/02/19 12:27:43;;;;;;;5.13;2.67;;;12.60;99.90;;;;;;4991821;28;20022;-54
2023/02/19 12:30:16;;;;;;;5.68;1.88;;;12.80;99.90;;;;;;4995079;28;20038;-52
2023/02/19 12:33:03;;;;;;;8.48;2.60;;;12.90;99.90;;;;;;4991556;28;20022;-51
2023/02/19 12:35:37;;;;;;;5.25;2.30;;;13.00;99.90;;;;;;4991247;28;20022;-51
2023/02/19 12:38:08;;;;;;;7.45;2.03;;;13.00;99.90;;;;;;4991605;28;20031;-50
2023/02/19 12:40:43;;;;;;;3.55;2.13;;;13.00;99.90;;;;;;4990387;28;20494;-53
2023/02/19 12:43:21;;;;;;;5.47;1.88;;;12.90;99.90;;;;;;4992324;28;20030;-50
2023/02/19 12:46:07;;;;;;;2.08;1.42;;;13.00;99.90;;;;;;4991201;28;20154;-48
2023/02/19 12:48:39;;;;;;;3.47;2.05;;;12.90;99.90;;;;;;4986137;28;20056;-48
2023/02/19 12:51:20;;;;;;;2.92;1.60;;;13.00;99.90;;;;;;4990320;28;20033;-48
2023/02/19 12:54:04;;;;;;;4.93;1.65;;;13.00;99.90;;;;;;4989966;28;20152;-49
2023/02/19 12:57:09;;;;;;;4.88;1.73;;;12.90;99.90;;;;;;4991242;28;20045;-48
2023/02/19 13:00:01;;;;;;;2.67;1.52;;;13.00;99.90;;;;;;4984361;28;20054;-52
2023/02/19 13:02:40;;;;;;;7.43;2.22;;;13.10;99.90;;;;;;4984000;28;20018;-51
2023/02/19 13:05:36;;;;;;;4.75;2.30;;;13.10;99.90;;;;;;4990892;28;20112;-52
2023/02/19 13:08:24;;;;;;;3.20;1.45;;;13.30;99.90;;;;;;4995192;28;20030;-48
2023/02/19 13:10:58;;;;;;;3.85;1.98;;;13.20;99.90;;;;;;4986898;28;20113;-55
2023/02/19 13:13:48;;;;;;;5.82;1.65;;;13.20;99.90;;;;;;5008777;28;20048;-54
2023/02/19 13:16:17;;;;;;;3.67;1.90;;;13.20;99.90;;;;;;4981684;28;20674;-51
2023/02/19 13:19:10;;;;;;;5.32;1.95;;;13.20;99.90;;;;;;4994802;28;20027;-49
2023/02/19 13:24:32;;;;;;;3.43;1.40;;;13.30;99.90;;;;;;4994614;28;20041;-52
2023/02/19 13:27:35;;;;;;;2.67;1.33;;;13.20;99.90;;;;;;4992919;28;20041;-53
2023/02/19 13:30:19;;;;;;;3.85;1.80;;;13.20;99.90;;;;;;4988408;28;20035;-49
2023/02/19 13:33:18;;;;;;;6.03;2.15;;;13.20;99.90;;;;;;4982965;28;20022;-49
2023/02/19 13:36:05;;;;;;;4.18;2.13;;;13.10;99.90;;;;;;4995481;28;20037;-51